In Rescue
 
Open Full Screen Window  High Contrast Mode
Wind Gusting 00 knots
08
July 13, 2020 10:59 PM CDT
Weather Information
Wind Direction
  210 °
Wind Speed
  08 kt (9 mph)
Wind Gust
  00 kt (0 mph)
Altimeter
29.76 in
Visibility
10 SM
Temperature
26° C
79° F
Dewpoint
22° C
72° F
Humidity
79%
1hr Rain Fall
00.00 in.
24hr Rain Fall
00.00 in.
Sky Condition
Broken @ 4,200 ft
VFR

METAR KGDB 140359Z AUTO 21008KT 10SM BKN042 26/22 A2976 RMK AO2 T02600215

FAA Disclaimer: The data displayed is for advisory purposes only and is not to be used for flight planning or operations.